sensor_id;sensor_type;location;lat;lon;timestamp;pressure;altitude;pressure_sealevel;temperature;humidity
25420;BME280;13354;48.174;11.566;2023-01-26T00:00:50;96101.91;;;0.16;91.34
25420;BME280;13354;48.174;11.566;2023-01-26T00:03:16;96097.28;;;0.09;91.61
25420;BME280;13354;48.174;11.566;2023-01-26T00:05:42;96092.69;;;0.12;91.61
25420;BME280;13354;48.174;11.566;2023-01-26T00:08:07;96091.84;;;0.12;91.65
25420;BME280;13354;48.174;11.566;2023-01-26T00:10:36;96098.34;;;0.06;91.86
25420;BME280;13354;48.174;11.566;2023-01-26T00:13:02;96088.16;;;0.03;91.69
25420;BME280;13354;48.174;11.566;2023-01-26T00:15:28;96078.84;;;0.12;91.85
25420;BME280;13354;48.174;11.566;2023-01-26T00:17:53;96082.50;;;0.20;91.83
25420;BME280;13354;48.174;11.566;2023-01-26T00:20:18;96072.44;;;0.16;91.91
25420;BME280;13354;48.174;11.566;2023-01-26T00:22:44;96069.94;;;0.14;92.19
25420;BME280;13354;48.174;11.566;2023-01-26T00:25:09;96065.69;;;0.13;92.22
25420;BME280;13354;48.174;11.566;2023-01-26T00:27:35;96063.91;;;0.14;91.93
25420;BME280;13354;48.174;11.566;2023-01-26T00:30:00;96065.00;;;0.22;91.62
25420;BME280;13354;48.174;11.566;2023-01-26T00:32:25;96065.91;;;0.21;91.83
25420;BME280;13354;48.174;11.566;2023-01-26T00:34:51;96061.44;;;0.23;90.98
25420;BME280;13354;48.174;11.566;2023-01-26T00:37:16;96069.09;;;0.14;90.87
25420;BME280;13354;48.174;11.566;2023-01-26T00:39:41;96063.91;;;0.25;91.02
25420;BME280;13354;48.174;11.566;2023-01-26T00:42:06;96059.06;;;0.20;90.80
25420;BME280;13354;48.174;11.566;2023-01-26T00:44:36;96052.06;;;0.32;90.68
25420;BME280;13354;48.174;11.566;2023-01-26T00:47:02;96054.91;;;0.29;90.42
25420;BME280;13354;48.174;11.566;2023-01-26T00:49:28;96057.41;;;0.19;90.46
25420;BME280;13354;48.174;11.566;2023-01-26T00:51:53;96054.31;;;0.14;90.98
25420;BME280;13354;48.174;11.566;2023-01-26T00:54:18;96052.66;;;0.13;91.18
25420;BME280;13354;48.174;11.566;2023-01-26T00:56:44;96049.47;;;0.10;91.41
25420;BME280;13354;48.174;11.566;2023-01-26T00:59:09;96051.72;;;0.14;91.12
25420;BME280;13354;48.174;11.566;2023-01-26T01:01:34;96046.50;;;0.14;91.11
25420;BME280;13354;48.174;11.566;2023-01-26T01:04:00;96044.16;;;0.11;91.56
25420;BME280;13354;48.174;11.566;2023-01-26T01:06:25;96040.69;;;0.11;91.72
25420;BME280;13354;48.174;11.566;2023-01-26T01:08:50;96040.69;;;0.11;90.60
25420;BME280;13354;48.174;11.566;2023-01-26T01:11:16;96038.81;;;0.13;90.08
25420;BME280;13354;48.174;11.566;2023-01-26T01:13:41;96041.06;;;0.06;90.13
25420;BME280;13354;48.174;11.566;2023-01-26T01:16:08;96046.28;;;0.06;90.83
25420;BME280;13354;48.174;11.566;2023-01-26T01:18:35;96041.66;;;0.10;91.47
25420;BME280;13354;48.174;11.566;2023-01-26T01:21:05;96035.75;;;0.08;91.61
25420;BME280;13354;48.174;11.566;2023-01-26T01:23:30;96035.28;;;0.03;91.57
25420;BME280;13354;48.174;11.566;2023-01-26T01:25:57;96032.44;;;0.06;91.87
25420;BME280;13354;48.174;11.566;2023-01-26T01:28:23;96037.03;;;0.13;91.75
25420;BME280;13354;48.174;11.566;2023-01-26T01:30:48;96042.84;;;0.06;91.34
25420;BME280;13354;48.174;11.566;2023-01-26T01:33:13;96042.03;;;0.05;91.91
25420;BME280;13354;48.174;11.566;2023-01-26T01:35:39;96036.69;;;0.07;91.33
25420;BME280;13354;48.174;11.566;2023-01-26T01:38:04;96037.03;;;0.02;90.97
25420;BME280;13354;48.174;11.566;2023-01-26T01:40:29;96037.03;;;0.13;91.14
25420;BME280;13354;48.174;11.566;2023-01-26T01:42:55;96039.53;;;0.04;90.71
25420;BME280;13354;48.174;11.566;2023-01-26T01:45:31;96039.66;;;0.02;90.68
25420;BME280;13354;48.174;11.566;2023-01-26T01:48:02;96041.78;;;-0.03;90.73
25420;BME280;13354;48.174;11.566;2023-01-26T01:50:33;96044.25;;;-0.02;90.15
25420;BME280;13354;48.174;11.566;2023-01-26T01:53:01;96045.31;;;-0.04;90.48
25420;BME280;13354;48.174;11.566;2023-01-26T01:55:27;96041.06;;;-0.05;90.94
25420;BME280;13354;48.174;11.566;2023-01-26T01:57:55;96038.38;;;-0.04;91.09
25420;BME280;13354;48.174;11.566;2023-01-26T02:00:23;96038.97;;;0.00;91.33
25420;BME280;13354;48.174;11.566;2023-01-26T02:02:58;96032.66;;;0.03;91.22
25420;BME280;13354;48.174;11.566;2023-01-26T02:06:00;96031.84;;;0.13;91.13
25420;BME280;13354;48.174;11.566;2023-01-26T02:08:38;96024.25;;;0.10;90.92
25420;BME280;13354;48.174;11.566;2023-01-26T02:11:10;96030.56;;;0.08;90.04
25420;BME280;13354;48.174;11.566;2023-01-26T02:13:37;96031.25;;;0.10;89.95
25420;BME280;13354;48.174;11.566;2023-01-26T02:16:03;96027.59;;;0.12;89.57
25420;BME280;13354;48.174;11.566;2023-01-26T02:18:29;96025.34;;;0.08;90.02
25420;BME280;13354;48.174;11.566;2023-01-26T02:21:05;96017.50;;;0.30;89.50
25420;BME280;13354;48.174;11.566;2023-01-26T02:28:30;96009.25;;;0.03;88.19
25420;BME280;13354;48.174;11.566;2023-01-26T02:30:56;96002.84;;;0.07;87.58
25420;BME280;13354;48.174;11.566;2023-01-26T02:33:27;96005.13;;;0.00;87.60
25420;BME280;13354;48.174;11.566;2023-01-26T02:35:53;95994.22;;;-0.05;88.39
25420;BME280;13354;48.174;11.566;2023-01-26T02:38:20;95989.47;;;-0.11;89.31
25420;BME280;13354;48.174;11.566;2023-01-26T02:40:56;95992.81;;;-0.09;89.85
25420;BME280;13354;48.174;11.566;2023-01-26T02:43:24;95992.66;;;-0.08;90.10
25420;BME280;13354;48.174;11.566;2023-01-26T02:45:50;95978.13;;;0.01;90.53
25420;BME280;13354;48.174;11.566;2023-01-26T02:48:16;95971.75;;;-0.06;89.82
25420;BME280;13354;48.174;11.566;2023-01-26T02:51:01;95972.44;;;-0.04;90.08
25420;BME280;13354;48.174;11.566;2023-01-26T02:53:27;95971.97;;;0.02;90.22
25420;BME280;13354;48.174;11.566;2023-01-26T02:55:52;95973.88;;;0.00;89.97
25420;BME280;13354;48.174;11.566;2023-01-26T02:58:17;95965.22;;;-0.01;90.02
25420;BME280;13354;48.174;11.566;2023-01-26T03:00:42;95964.41;;;-0.01;90.45
25420;BME280;13354;48.174;11.566;2023-01-26T03:03:22;95962.75;;;-0.02;90.30
25420;BME280;13354;48.174;11.566;2023-01-26T03:05:48;95960.28;;;-0.04;89.99
25420;BME280;13354;48.174;11.566;2023-01-26T03:08:14;95956.81;;;-0.04;90.22
25420;BME280;13354;48.174;11.566;2023-01-26T03:10:39;95955.19;;;-0.05;89.51
25420;BME280;13354;48.174;11.566;2023-01-26T03:13:04;95948.69;;;0.01;89.95
25420;BME280;13354;48.174;11.566;2023-01-26T03:15:30;95955.53;;;0.02;90.12
25420;BME280;13354;48.174;11.566;2023-01-26T03:18:17;95953.38;;;0.07;90.27
25420;BME280;13354;48.174;11.566;2023-01-26T03:21:08;95947.34;;;0.06;89.97
25420;BME280;13354;48.174;11.566;2023-01-26T03:23:51;95943.72;;;-0.03;89.33
25420;BME280;13354;48.174;11.566;2023-01-26T03:26:35;95939.91;;;0.02;88.88
25420;BME280;13354;48.174;11.566;2023-01-26T03:29:23;95943.94;;;-0.06;88.16
25420;BME280;13354;48.174;11.566;2023-01-26T03:31:51;95936.38;;;-0.09;88.50
25420;BME280;13354;48.174;11.566;2023-01-26T03:34:16;95947.59;;;0.03;89.13
25420;BME280;13354;48.174;11.566;2023-01-26T03:36:41;95934.97;;;-0.13;88.92
25420;BME280;13354;48.174;11.566;2023-01-26T03:39:07;95935.91;;;-0.14;89.09
25420;BME280;13354;48.174;11.566;2023-01-26T03:41:33;95943.59;;;-0.12;88.78
25420;BME280;13354;48.174;11.566;2023-01-26T03:44:16;95945.72;;;-0.17;89.27
25420;BME280;13354;48.174;11.566;2023-01-26T03:47:00;95940.63;;;-0.19;89.43
25420;BME280;13354;48.174;11.566;2023-01-26T03:49:44;95941.94;;;-0.25;89.20
25420;BME280;13354;48.174;11.566;2023-01-26T03:52:31;95944.91;;;-0.29;89.89
25420;BME280;13354;48.174;11.566;2023-01-26T03:55:15;95941.00;;;-0.23;90.36
25420;BME280;13354;48.174;11.566;2023-01-26T03:57:59;95932.72;;;-0.29;90.40
25420;BME280;13354;48.174;11.566;2023-01-26T04:00:25;95936.84;;;-0.26;90.92
25420;BME280;13354;48.174;11.566;2023-01-26T04:02:50;95941.22;;;-0.27;91.03
25420;BME280;13354;48.174;11.566;2023-01-26T04:05:34;95938.53;;;-0.25;91.31
25420;BME280;13354;48.174;11.566;2023-01-26T04:08:18;95936.50;;;-0.21;91.74
25420;BME280;13354;48.174;11.566;2023-01-26T04:10:52;95935.44;;;-0.19;91.34
25420;BME280;13354;48.174;11.566;2023-01-26T04:13:20;95933.69;;;-0.18;91.20
25420;BME280;13354;48.174;11.566;2023-01-26T04:16:04;95928.56;;;-0.09;90.52
25420;BME280;13354;48.174;11.566;2023-01-26T04:18:48;95927.50;;;-0.06;89.91
25420;BME280;13354;48.174;11.566;2023-01-26T04:21:32;95925.72;;;-0.06;90.12
25420;BME280;13354;48.174;11.566;2023-01-26T04:23:59;95920.75;;;-0.09;90.34
25420;BME280;13354;48.174;11.566;2023-01-26T04:26:26;95918.88;;;-0.07;90.36
25420;BME280;13354;48.174;11.566;2023-01-26T04:28:59;95921.56;;;-0.08;89.92
25420;BME280;13354;48.174;11.566;2023-01-26T04:31:25;95922.66;;;0.01;90.05
25420;BME280;13354;48.174;11.566;2023-01-26T04:33:50;95919.78;;;0.04;88.94
25420;BME280;13354;48.174;11.566;2023-01-26T04:36:16;95914.94;;;-0.01;88.67
25420;BME280;13354;48.174;11.566;2023-01-26T04:38:41;95917.41;;;0.12;88.42
25420;BME280;13354;48.174;11.566;2023-01-26T04:41:06;95923.09;;;0.06;88.63
25420;BME280;13354;48.174;11.566;2023-01-26T04:43:32;95916.50;;;0.02;88.57
25420;BME280;13354;48.174;11.566;2023-01-26T04:48:24;95914.03;;;0.00;89.13
25420;BME280;13354;48.174;11.566;2023-01-26T04:50:56;95910.22;;;0.04;88.89
25420;BME280;13354;48.174;11.566;2023-01-26T04:53:22;95912.84;;;-0.07;88.31
25420;BME280;13354;48.174;11.566;2023-01-26T04:55:48;95911.06;;;-0.07;88.78
25420;BME280;13354;48.174;11.566;2023-01-26T04:58:13;95916.88;;;-0.03;89.35
25420;BME280;13354;48.174;11.566;2023-01-26T05:00:38;95913.31;;;-0.02;89.47
25420;BME280;13354;48.174;11.566;2023-01-26T05:03:03;95916.97;;;-0.05;89.74
25420;BME280;13354;48.174;11.566;2023-01-26T05:05:29;95916.59;;;0.11;89.16
25420;BME280;13354;48.174;11.566;2023-01-26T05:07:54;95923.34;;;0.03;89.33
25420;BME280;13354;48.174;11.566;2023-01-26T05:10:19;95918.38;;;-0.01;89.15
25420;BME280;13354;48.174;11.566;2023-01-26T05:12:44;95917.19;;;0.04;88.62
25420;BME280;13354;48.174;11.566;2023-01-26T05:15:10;95919.16;;;0.22;88.23
25420;BME280;13354;48.174;11.566;2023-01-26T05:17:35;95916.84;;;0.08;88.22
25420;BME280;13354;48.174;11.566;2023-01-26T05:20:01;95919.66;;;0.16;87.60
25420;BME280;13354;48.174;11.566;2023-01-26T05:22:26;95922.25;;;0.16;87.13
25420;BME280;13354;48.174;11.566;2023-01-26T05:24:52;95923.56;;;0.11;86.91
25420;BME280;13354;48.174;11.566;2023-01-26T05:27:17;95919.69;;;0.05;86.59
25420;BME280;13354;48.174;11.566;2023-01-26T05:29:45;95922.06;;;-0.03;87.40
25420;BME280;13354;48.174;11.566;2023-01-26T05:32:11;95914.56;;;0.04;87.71
25420;BME280;13354;48.174;11.566;2023-01-26T05:34:36;95916.97;;;-0.05;88.37
25420;BME280;13354;48.174;11.566;2023-01-26T05:37:01;95919.69;;;-0.06;88.49
25420;BME280;13354;48.174;11.566;2023-01-26T05:39:27;95920.16;;;-0.12;89.49
25420;BME280;13354;48.174;11.566;2023-01-26T05:41:52;95916.50;;;-0.10;89.41
25420;BME280;13354;48.174;11.566;2023-01-26T05:44:20;95915.44;;;-0.07;89.61
25420;BME280;13354;48.174;11.566;2023-01-26T05:46:45;95914.97;;;-0.12;89.60
25420;BME280;13354;48.174;11.566;2023-01-26T05:49:10;95914.13;;;-0.13;89.67
25420;BME280;13354;48.174;11.566;2023-01-26T05:51:36;95914.13;;;-0.13;89.90
25420;BME280;13354;48.174;11.566;2023-01-26T05:54:01;95923.59;;;-0.12;90.42
25420;BME280;13354;48.174;11.566;2023-01-26T05:56:26;95918.75;;;-0.16;90.06
25420;BME280;13354;48.174;11.566;2023-01-26T05:58:51;95917.81;;;-0.15;90.15
25420;BME280;13354;48.174;11.566;2023-01-26T06:01:17;95921.81;;;-0.11;90.59
25420;BME280;13354;48.174;11.566;2023-01-26T06:03:42;95921.72;;;-0.21;89.68
25420;BME280;13354;48.174;11.566;2023-01-26T06:06:07;95922.19;;;-0.16;90.01
25420;BME280;13354;48.174;11.566;2023-01-26T06:08:33;95929.75;;;-0.02;89.32
25420;BME280;13354;48.174;11.566;2023-01-26T06:10:58;95928.22;;;-0.15;87.99
25420;BME280;13354;48.174;11.566;2023-01-26T06:13:25;95926.81;;;-0.19;88.09
25420;BME280;13354;48.174;11.566;2023-01-26T06:15:50;95927.03;;;-0.22;88.50
25420;BME280;13354;48.174;11.566;2023-01-26T06:18:15;95928.09;;;-0.14;88.46
25420;BME280;13354;48.174;11.566;2023-01-26T06:20:41;95923.72;;;-0.13;88.04
25420;BME280;13354;48.174;11.566;2023-01-26T06:23:06;95923.72;;;-0.13;88.37
25420;BME280;13354;48.174;11.566;2023-01-26T06:25:36;95916.97;;;-0.16;88.48
25420;BME280;13354;48.174;11.566;2023-01-26T06:28:03;95914.75;;;-0.20;88.92
25420;BME280;13354;48.174;11.566;2023-01-26T06:30:29;95925.75;;;-0.28;89.18
25420;BME280;13354;48.174;11.566;2023-01-26T06:32:54;95928.00;;;-0.23;89.11
25420;BME280;13354;48.174;11.566;2023-01-26T06:35:19;95924.69;;;-0.26;89.51
25420;BME280;13354;48.174;11.566;2023-01-26T06:37:49;95923.13;;;-0.17;88.75
25420;BME280;13354;48.174;11.566;2023-01-26T06:40:15;95921.38;;;-0.28;88.60
25420;BME280;13354;48.174;11.566;2023-01-26T06:42:48;95928.22;;;-0.27;88.41
25420;BME280;13354;48.174;11.566;2023-01-26T06:45:14;95924.09;;;-0.29;89.02
25420;BME280;13354;48.174;11.566;2023-01-26T06:47:47;95932.38;;;-0.24;89.33
25420;BME280;13354;48.174;11.566;2023-01-26T06:50:18;95927.75;;;-0.20;89.96
25420;BME280;13354;48.174;11.566;2023-01-26T06:52:50;95921.50;;;-0.18;89.66
25420;BME280;13354;48.174;11.566;2023-01-26T06:55:20;95922.41;;;-0.19;89.80
25420;BME280;13354;48.174;11.566;2023-01-26T06:57:46;95918.75;;;-0.16;89.57
25420;BME280;13354;48.174;11.566;2023-01-26T07:00:12;95919.13;;;-0.10;89.15
25420;BME280;13354;48.174;11.566;2023-01-26T07:02:37;95912.50;;;-0.14;89.01
25420;BME280;13354;48.174;11.566;2023-01-26T07:05:03;95912.97;;;-0.20;88.86
25420;BME280;13354;48.174;11.566;2023-01-26T07:07:28;95917.69;;;-0.14;88.63
25420;BME280;13354;48.174;11.566;2023-01-26T07:09:54;95911.66;;;-0.14;88.95
25420;BME280;13354;48.174;11.566;2023-01-26T07:12:19;95911.66;;;-0.14;88.56
25420;BME280;13354;48.174;11.566;2023-01-26T07:14:45;95912.94;;;-0.09;88.44
25420;BME280;13354;48.174;11.566;2023-01-26T07:17:10;95915.44;;;-0.07;88.24
25420;BME280;13354;48.174;11.566;2023-01-26T07:19:36;95915.44;;;-0.07;88.83
25420;BME280;13354;48.174;11.566;2023-01-26T07:22:01;95916.72;;;-0.02;88.86
25420;BME280;13354;48.174;11.566;2023-01-26T07:24:27;95913.53;;;-0.05;88.71
25420;BME280;13354;48.174;11.566;2023-01-26T07:26:52;95912.25;;;0.01;88.70
25420;BME280;13354;48.174;11.566;2023-01-26T07:29:18;95913.75;;;0.03;88.26
25420;BME280;13354;48.174;11.566;2023-01-26T07:31:43;95909.88;;;-0.03;88.17
25420;BME280;13354;48.174;11.566;2023-01-26T07:34:09;95907.75;;;-0.09;88.04
25420;BME280;13354;48.174;11.566;2023-01-26T07:36:34;95912.84;;;-0.07;88.66
25420;BME280;13354;48.174;11.566;2023-01-26T07:39:00;95915.06;;;-0.03;88.63
25420;BME280;13354;48.174;11.566;2023-01-26T07:41:25;95914.00;;;-0.11;88.30
25420;BME280;13354;48.174;11.566;2023-01-26T07:43:50;95912.59;;;-0.15;88.43
25420;BME280;13354;48.174;11.566;2023-01-26T07:46:16;95908.47;;;-0.18;88.70
25420;BME280;13354;48.174;11.566;2023-01-26T07:48:41;95906.47;;;-0.14;89.36
25420;BME280;13354;48.174;11.566;2023-01-26T07:51:06;95903.38;;;-0.19;88.82
25420;BME280;13354;48.174;11.566;2023-01-26T07:53:33;95908.47;;;-0.18;88.29
25420;BME280;13354;48.174;11.566;2023-01-26T07:56:10;95899.72;;;-0.17;88.01
25420;BME280;13354;48.174;11.566;2023-01-26T07:58:36;95896.97;;;-0.15;87.55
25420;BME280;13354;48.174;11.566;2023-01-26T08:01:12;95897.47;;;-0.10;87.75
25420;BME280;13354;48.174;11.566;2023-01-26T08:03:38;95901.47;;;-0.06;87.85
25420;BME280;13354;48.174;11.566;2023-01-26T08:06:04;95892.63;;;-0.04;87.60
25420;BME280;13354;48.174;11.566;2023-01-26T08:08:30;95893.44;;;-0.03;87.92
25420;BME280;13354;48.174;11.566;2023-01-26T08:10:56;95894.25;;;-0.03;87.36
25420;BME280;13354;48.174;11.566;2023-01-26T08:13:22;95887.38;;;0.08;87.14
25420;BME280;13354;48.174;11.566;2023-01-26T08:15:47;95889.44;;;-0.07;86.18
25420;BME280;13354;48.174;11.566;2023-01-26T08:18:13;95892.00;;;0.04;86.23
25420;BME280;13354;48.174;11.566;2023-01-26T08:20:38;95892.72;;;-0.05;85.48
25420;BME280;13354;48.174;11.566;2023-01-26T08:23:03;95892.25;;;-0.10;86.20
25420;BME280;13354;48.174;11.566;2023-01-26T08:25:28;95885.38;;;0.00;86.42
25420;BME280;13354;48.174;11.566;2023-01-26T08:27:54;95877.69;;;-0.02;85.51
25420;BME280;13354;48.174;11.566;2023-01-26T08:30:20;95886.91;;;0.03;85.26
25420;BME280;13354;48.174;11.566;2023-01-26T08:32:45;95884.19;;;0.04;84.87
25420;BME280;13354;48.174;11.566;2023-01-26T08:35:10;95882.75;;;0.11;85.57
25420;BME280;13354;48.174;11.566;2023-01-26T08:37:36;95875.16;;;0.52;91.49
25420;BME280;13354;48.174;11.566;2023-01-26T08:40:01;95875.94;;;0.63;93.07
25420;BME280;13354;48.174;11.566;2023-01-26T08:42:26;95876.75;;;0.85;94.24
25420;BME280;13354;48.174;11.566;2023-01-26T08:44:52;95878.44;;;0.95;92.64
25420;BME280;13354;48.174;11.566;2023-01-26T08:47:18;95872.41;;;0.95;91.54
25420;BME280;13354;48.174;11.566;2023-01-26T08:49:43;95878.00;;;0.69;87.04
25420;BME280;13354;48.174;11.566;2023-01-26T08:52:08;95884.72;;;0.51;85.85
25420;BME280;13354;48.174;11.566;2023-01-26T08:54:34;95887.25;;;0.41;85.19
25420;BME280;13354;48.174;11.566;2023-01-26T08:56:59;95885.97;;;0.36;85.68
25420;BME280;13354;48.174;11.566;2023-01-26T08:59:24;95885.53;;;0.31;85.63
25420;BME280;13354;48.174;11.566;2023-01-26T09:01:49;95882.34;;;0.27;85.67
25420;BME280;13354;48.174;11.566;2023-01-26T09:04:15;95884.22;;;0.25;86.13
25420;BME280;13354;48.174;11.566;2023-01-26T09:06:40;95879.16;;;0.23;85.89
25420;BME280;13354;48.174;11.566;2023-01-26T09:09:05;95887.34;;;0.19;84.48
25420;BME280;13354;48.174;11.566;2023-01-26T09:11:34;95888.84;;;0.21;84.63
25420;BME280;13354;48.174;11.566;2023-01-26T09:13:59;95881.75;;;0.23;84.51
25420;BME280;13354;48.174;11.566;2023-01-26T09:16:24;95884.16;;;0.15;84.44
25420;BME280;13354;48.174;11.566;2023-01-26T09:18:51;95888.78;;;0.12;85.30
25420;BME280;13354;48.174;11.566;2023-01-26T09:21:17;95882.47;;;0.14;85.78
25420;BME280;13354;48.174;11.566;2023-01-26T09:23:43;95881.56;;;0.15;85.79
25420;BME280;13354;48.174;11.566;2023-01-26T09:26:08;95886.19;;;0.12;85.66
25420;BME280;13354;48.174;11.566;2023-01-26T09:28:34;95888.78;;;0.12;86.00
25420;BME280;13354;48.174;11.566;2023-01-26T09:31:03;95892.75;;;0.27;86.71
25420;BME280;13354;48.174;11.566;2023-01-26T09:33:29;95893.38;;;0.72;90.35
25420;BME280;13354;48.174;11.566;2023-01-26T09:35:54;95881.50;;;0.80;89.52
25420;BME280;13354;48.174;11.566;2023-01-26T09:38:19;95893.44;;;0.61;84.92
25420;BME280;13354;48.174;11.566;2023-01-26T09:46:00;95892.53;;;0.51;83.64
25420;BME280;13354;48.174;11.566;2023-01-26T09:53:56;95900.16;;;0.43;83.59
25420;BME280;13354;48.174;11.566;2023-01-26T09:56:26;95889.72;;;0.43;83.91
25420;BME280;13354;48.174;11.566;2023-01-26T09:59:06;95883.13;;;0.39;83.88
25420;BME280;13354;48.174;11.566;2023-01-26T10:07:45;95879.97;;;0.24;83.35
25420;BME280;13354;48.174;11.566;2023-01-26T10:10:22;95890.25;;;0.26;83.84
25420;BME280;13354;48.174;11.566;2023-01-26T10:12:50;95886.00;;;0.24;83.91
25420;BME280;13354;48.174;11.566;2023-01-26T10:17:46;95874.53;;;0.27;83.66
25420;BME280;13354;48.174;11.566;2023-01-26T10:20:31;95874.97;;;0.32;83.91
25420;BME280;13354;48.174;11.566;2023-01-26T10:23:27;95869.75;;;0.32;84.20
25420;BME280;13354;48.174;11.566;2023-01-26T10:26:01;95872.88;;;0.26;83.10
25420;BME280;13354;48.174;11.566;2023-01-26T10:28:28;95868.25;;;0.30;82.58
25420;BME280;13354;48.174;11.566;2023-01-26T10:30:55;95867.41;;;0.29;82.95
25420;BME280;13354;48.174;11.566;2023-01-26T10:33:24;95863.00;;;0.41;82.73
25420;BME280;13354;48.174;11.566;2023-01-26T10:35:50;95862.66;;;0.34;82.46
25420;BME280;13354;48.174;11.566;2023-01-26T10:38:26;95866.78;;;0.37;82.15
25420;BME280;13354;48.174;11.566;2023-01-26T10:40:52;95858.97;;;0.37;82.76
25420;BME280;13354;48.174;11.566;2023-01-26T10:43:18;95861.09;;;0.43;82.85
25420;BME280;13354;48.174;11.566;2023-01-26T10:45:45;95862.25;;;0.50;82.39
25420;BME280;13354;48.174;11.566;2023-01-26T10:48:20;95859.94;;;0.36;82.57
25420;BME280;13354;48.174;11.566;2023-01-26T10:50:49;95864.19;;;0.37;82.24
25420;BME280;13354;48.174;11.566;2023-01-26T10:53:17;95865.22;;;0.45;82.87
25420;BME280;13354;48.174;11.566;2023-01-26T10:58:53;95857.16;;;0.48;82.86
25420;BME280;13354;48.174;11.566;2023-01-26T11:01:19;95854.81;;;0.45;83.00
25420;BME280;13354;48.174;11.566;2023-01-26T11:04:00;95849.69;;;0.44;81.89
25420;BME280;13354;48.174;11.566;2023-01-26T11:06:28;95847.44;;;0.51;81.70
25420;BME280;13354;48.174;11.566;2023-01-26T11:09:08;95846.59;;;0.50;81.03
25420;BME280;13354;48.174;11.566;2023-01-26T11:11:34;95842.75;;;0.44;81.09
25420;BME280;13354;48.174;11.566;2023-01-26T11:14:19;95841.31;;;0.40;80.80
25420;BME280;13354;48.174;11.566;2023-01-26T11:16:49;95845.84;;;0.38;80.30
25420;BME280;13354;48.174;11.566;2023-01-26T11:22:15;95848.94;;;0.32;81.05
25420;BME280;13354;48.174;11.566;2023-01-26T11:25:03;95845.13;;;0.36;80.96
25420;BME280;13354;48.174;11.566;2023-01-26T11:27:39;95850.91;;;0.40;81.01
25420;BME280;13354;48.174;11.566;2023-01-26T11:33:12;95852.00;;;0.37;80.17
25420;BME280;13354;48.174;11.566;2023-01-26T11:47:25;95837.97;;;0.50;81.55
25420;BME280;13354;48.174;11.566;2023-01-26T11:50:03;95833.66;;;0.60;81.72
25420;BME280;13354;48.174;11.566;2023-01-26T11:53:02;95835.31;;;0.61;81.61
25420;BME280;13354;48.174;11.566;2023-01-26T12:01:07;95839.50;;;0.52;81.36
25420;BME280;13354;48.174;11.566;2023-01-26T12:03:48;95837.78;;;0.41;81.98
25420;BME280;13354;48.174;11.566;2023-01-26T12:06:19;95833.25;;;0.43;81.98
25420;BME280;13354;48.174;11.566;2023-01-26T12:08:58;95822.16;;;0.41;81.71
25420;BME280;13354;48.174;11.566;2023-01-26T12:11:30;95819.97;;;0.46;81.66
25420;BME280;13354;48.174;11.566;2023-01-26T12:14:09;95816.16;;;0.51;81.34
25420;BME280;13354;48.174;11.566;2023-01-26T12:16:48;95814.00;;;0.35;81.40
25420;BME280;13354;48.174;11.566;2023-01-26T12:21:50;95809.25;;;0.40;80.70
25420;BME280;13354;48.174;11.566;2023-01-26T12:27:45;95810.00;;;0.31;80.26
25420;BME280;13354;48.174;11.566;2023-01-26T12:32:56;95801.63;;;0.27;81.20
25420;BME280;13354;48.174;11.566;2023-01-26T12:38:17;95808.66;;;0.36;81.65
25420;BME280;13354;48.174;11.566;2023-01-26T12:40:56;95804.81;;;0.31;82.56
25420;BME280;13354;48.174;11.566;2023-01-26T12:43:39;95805.88;;;0.28;82.55
25420;BME280;13354;48.174;11.566;2023-01-26T12:46:09;95806.00;;;0.27;83.22
25420;BME280;13354;48.174;11.566;2023-01-26T12:48:48;95805.69;;;0.20;83.16
25420;BME280;13354;48.174;11.566;2023-01-26T12:51:26;95793.16;;;0.14;83.53
25420;BME280;13354;48.174;11.566;2023-01-26T12:54:04;95798.25;;;0.15;83.50
25420;BME280;13354;48.174;11.566;2023-01-26T12:56:40;95801.66;;;0.16;83.40
25420;BME280;13354;48.174;11.566;2023-01-26T12:59:29;95809.59;;;0.14;84.29
25420;BME280;13354;48.174;11.566;2023-01-26T13:01:55;95808.31;;;0.09;83.18
25420;BME280;13354;48.174;11.566;2023-01-26T13:04:21;95808.56;;;0.06;83.41
25420;BME280;13354;48.174;11.566;2023-01-26T13:07:00;95805.59;;;0.10;83.25
25420;BME280;13354;48.174;11.566;2023-01-26T13:09:27;95801.19;;;0.11;82.92
25420;BME280;13354;48.174;11.566;2023-01-26T13:14:33;95792.47;;;0.12;82.05
25420;BME280;13354;48.174;11.566;2023-01-26T13:24:43;95790.75;;;0.22;81.43
25420;BME280;13354;48.174;11.566;2023-01-26T13:35:13;95793.41;;;0.32;81.72
25420;BME280;13354;48.174;11.566;2023-01-26T13:37:55;95790.97;;;0.30;80.99
25420;BME280;13354;48.174;11.566;2023-01-26T13:40:25;95793.09;;;0.25;80.56
25420;BME280;13354;48.174;11.566;2023-01-26T13:43:02;95791.88;;;0.29;80.59
25420;BME280;13354;48.174;11.566;2023-01-26T13:45:34;95793.63;;;0.19;80.07
25420;BME280;13354;48.174;11.566;2023-01-26T13:48:13;95789.22;;;0.19;79.77
25420;BME280;13354;48.174;11.566;2023-01-26T13:50:39;95787.94;;;0.14;79.75
25420;BME280;13354;48.174;11.566;2023-01-26T13:55:57;95789.91;;;0.21;79.44
25420;BME280;13354;48.174;11.566;2023-01-26T13:58:22;95787.16;;;0.34;79.84
25420;BME280;13354;48.174;11.566;2023-01-26T14:01:03;95790.13;;;0.30;79.04
25420;BME280;13354;48.174;11.566;2023-01-26T14:03:29;95793.41;;;0.32;79.44
25420;BME280;13354;48.174;11.566;2023-01-26T14:06:06;95796.66;;;0.24;80.21
25420;BME280;13354;48.174;11.566;2023-01-26T14:08:36;95786.38;;;0.22;79.67
25420;BME280;13354;48.174;11.566;2023-01-26T14:11:04;95789.28;;;0.29;79.97
25420;BME280;13354;48.174;11.566;2023-01-26T14:13:35;95799.75;;;0.18;79.91
25420;BME280;13354;48.174;11.566;2023-01-26T14:16:02;95794.25;;;0.32;80.07
25420;BME280;13354;48.174;11.566;2023-01-26T14:18:29;95786.44;;;0.32;79.80
25420;BME280;13354;48.174;11.566;2023-01-26T14:21:03;95784.78;;;0.31;79.63
25420;BME280;13354;48.174;11.566;2023-01-26T14:23:34;95794.00;;;0.35;79.48
25420;BME280;13354;48.174;11.566;2023-01-26T14:26:02;95799.28;;;0.45;78.98
25420;BME280;13354;48.174;11.566;2023-01-26T14:28:42;95797.31;;;0.37;79.00
25420;BME280;13354;48.174;11.566;2023-01-26T14:31:22;95796.59;;;0.35;78.45
25420;BME280;13354;48.174;11.566;2023-01-26T14:33:49;95790.31;;;0.38;78.20